createdAt,value
2023-03-24T00:01:53.507Z,93.80
2023-03-24T00:06:55.365Z,93.60
2023-03-24T00:11:57.991Z,94.00
2023-03-24T00:16:59.851Z,94.30
2023-03-24T00:22:02.206Z,94.70
2023-03-24T00:27:04.064Z,94.90
2023-03-24T00:32:06.507Z,94.80
2023-03-24T00:37:08.330Z,94.50
2023-03-24T00:42:10.197Z,94.60
2023-03-24T00:47:12.049Z,94.90
2023-03-24T00:52:21.062Z,95.30
2023-03-24T00:57:22.875Z,95.40
2023-03-24T01:02:26.385Z,95.80
2023-03-24T01:07:30.195Z,96.40
2023-03-24T01:12:35.231Z,96.90
2023-03-24T01:17:37.098Z,97.30
2023-03-24T01:22:40.546Z,97.40
2023-03-24T01:27:46.937Z,97.60
2023-03-24T01:32:49.827Z,97.70
2023-03-24T01:37:52.421Z,97.40
2023-03-24T01:42:54.594Z,97.60
2023-03-24T01:47:56.749Z,97.40
2023-03-24T01:52:59.370Z,97.30
2023-03-24T01:58:02.488Z,97.60
2023-03-24T02:03:14.880Z,97.90
2023-03-24T02:08:23.303Z,97.70
2023-03-24T02:13:25.331Z,97.40
2023-03-24T02:18:45.098Z,97.60
2023-03-24T02:24:11.842Z,97.50
2023-03-24T02:29:29.230Z,97.70
2023-03-24T02:34:46.652Z,97.20
2023-03-24T02:40:08.093Z,97.40
2023-03-24T02:45:19.058Z,97.60
2023-03-24T02:50:38.415Z,97.50
2023-03-24T02:55:53.022Z,97.50
2023-03-24T03:01:05.804Z,97.70
2023-03-24T03:06:14.995Z,98.30
2023-03-24T03:11:17.821Z,99.10
2023-03-24T03:16:25.437Z,98.90
2023-03-24T03:21:32.887Z,99.60
2023-03-24T03:26:35.054Z,99.40
2023-03-24T03:32:08.122Z,99.80
2023-03-24T03:37:57.629Z,99.60
2023-03-24T03:42:59.488Z,99.60
2023-03-24T03:48:02.121Z,99.90
2023-03-24T03:53:05.275Z,99.80
2023-03-24T03:58:07.425Z,99.30
2023-03-24T04:03:34.528Z,99.30
2023-03-24T04:08:47.209Z,99.90
2023-03-24T04:13:55.018Z,99.90
2023-03-24T04:19:00.026Z,99.90
2023-03-24T04:24:16.092Z,99.90
2023-03-24T04:29:31.443Z,99.90
2023-03-24T04:34:38.406Z,99.90
2023-03-24T04:39:43.836Z,99.90
2023-03-24T04:44:45.660Z,99.90
2023-03-24T04:49:47.454Z,99.90
2023-03-24T04:54:49.302Z,99.90
2023-03-24T04:59:51.084Z,99.90
2023-03-24T05:04:53.722Z,99.90
2023-03-24T05:09:56.416Z,99.90
2023-03-24T05:14:58.280Z,99.90
2023-03-24T05:20:00.455Z,99.90
2023-03-24T05:25:02.271Z,99.90
2023-03-24T05:30:07.426Z,99.90
2023-03-24T05:35:09.502Z,99.90
2023-03-24T05:40:11.912Z,99.90
2023-03-24T05:45:13.760Z,99.90
2023-03-24T05:50:15.657Z,99.90
2023-03-24T05:55:19.295Z,99.90
2023-03-24T06:00:23.423Z,99.90
2023-03-24T06:05:25.776Z,99.90
2023-03-24T06:10:28.493Z,99.90
2023-03-24T06:15:30.790Z,99.90
2023-03-24T06:20:32.790Z,99.90
2023-03-24T06:25:35.619Z,99.90
2023-03-24T06:30:38.984Z,99.90
2023-03-24T06:35:41.116Z,99.90
2023-03-24T06:40:43.032Z,99.00
2023-03-24T06:45:45.819Z,98.40
2023-03-24T06:50:47.960Z,98.00
2023-03-24T06:55:50.705Z,96.80
2023-03-24T07:00:53.738Z,97.00
2023-03-24T07:05:57.145Z,96.40
2023-03-24T07:11:00.124Z,95.10
2023-03-24T07:16:02.366Z,93.60
2023-03-24T07:21:04.843Z,93.30
2023-03-24T07:26:07.153Z,92.30
2023-03-24T07:31:12.371Z,91.80
2023-03-24T07:36:14.270Z,91.90
2023-03-24T07:41:16.290Z,92.00
2023-03-24T07:46:18.416Z,91.50
2023-03-24T07:51:20.587Z,90.20
2023-03-24T07:56:22.417Z,89.00
2023-03-24T08:01:24.208Z,88.70
2023-03-24T08:06:26.400Z,88.80
2023-03-24T08:11:29.266Z,88.50
2023-03-24T08:16:31.133Z,88.30
2023-03-24T08:21:33.358Z,89.80
2023-03-24T08:26:35.476Z,87.70
2023-03-24T08:31:37.654Z,87.20
2023-03-24T08:36:39.451Z,87.70
2023-03-24T08:41:41.238Z,86.40
2023-03-24T08:46:43.395Z,86.40
2023-03-24T08:51:45.441Z,84.70
2023-03-24T08:56:47.262Z,84.20
2023-03-24T09:01:49.399Z,85.40
2023-03-24T09:06:53.574Z,79.40
2023-03-24T09:11:55.440Z,78.70
2023-03-24T09:16:57.304Z,76.20
2023-03-24T09:21:59.309Z,78.90
2023-03-24T09:27:01.164Z,76.60
2023-03-24T09:32:03.240Z,75.40
2023-03-24T09:37:05.830Z,75.40
2023-03-24T09:42:23.635Z,75.50
2023-03-24T09:48:02.730Z,76.00
2023-03-24T09:53:13.893Z,73.90
2023-03-24T09:58:15.776Z,73.10
2023-03-24T10:03:22.997Z,73.20
2023-03-24T10:08:45.766Z,73.00
2023-03-24T10:14:11.465Z,73.70
2023-03-24T10:19:39.114Z,74.20
2023-03-24T10:25:06.805Z,72.60
2023-03-24T10:30:16.594Z,73.20
2023-03-24T10:35:22.831Z,72.60
2023-03-24T10:40:33.742Z,71.20
2023-03-24T10:45:38.530Z,71.50
2023-03-24T10:50:45.189Z,71.50
2023-03-24T10:55:47.998Z,71.20
2023-03-24T11:00:50.442Z,69.50
2023-03-24T11:05:58.183Z,69.80
2023-03-24T11:11:00.075Z,71.70
2023-03-24T11:16:01.879Z,68.80
2023-03-24T11:21:05.395Z,68.80
2023-03-24T11:26:07.396Z,68.20
2023-03-24T11:31:11.100Z,68.50
2023-03-24T11:36:32.880Z,69.50
2023-03-24T11:41:36.739Z,67.10
2023-03-24T11:46:40.468Z,66.70
2023-03-24T11:51:45.062Z,65.40
2023-03-24T11:56:59.019Z,66.30
2023-03-24T12:02:27.017Z,66.30
2023-03-24T12:07:28.800Z,64.90
2023-03-24T12:12:38.028Z,67.70
2023-03-24T12:18:19.526Z,66.80
2023-03-24T12:23:44.153Z,68.00
2023-03-24T12:29:15.756Z,68.20
2023-03-24T12:34:35.768Z,67.40
2023-03-24T12:39:55.063Z,67.00
2023-03-24T12:45:05.003Z,67.80
2023-03-24T12:50:44.292Z,68.30
2023-03-24T12:55:51.325Z,68.50
2023-03-24T13:00:57.904Z,68.00
2023-03-24T13:06:16.862Z,68.60
2023-03-24T13:11:32.362Z,68.20
2023-03-24T13:16:35.824Z,70.00
2023-03-24T13:21:37.815Z,69.30
2023-03-24T13:26:57.890Z,68.90
2023-03-24T13:32:08.883Z,68.70
2023-03-24T13:37:14.524Z,69.90
2023-03-24T13:42:46.341Z,68.30
2023-03-24T13:48:06.585Z,67.70
2023-03-24T13:53:15.457Z,66.90
2023-03-24T13:58:28.573Z,67.20
2023-03-24T14:03:39.472Z,66.40
2023-03-24T14:08:52.389Z,67.10
2023-03-24T14:13:54.543Z,66.80
2023-03-24T14:19:41.929Z,67.00
2023-03-24T14:24:46.415Z,68.20
2023-03-24T14:29:51.021Z,68.90
2023-03-24T14:34:53.366Z,67.80
2023-03-24T14:39:59.261Z,67.20
2023-03-24T14:45:07.078Z,66.70
2023-03-24T14:50:21.276Z,68.00
2023-03-24T14:55:23.390Z,67.70
2023-03-24T15:00:27.696Z,68.50
2023-03-24T15:05:31.319Z,68.60
2023-03-24T15:10:37.599Z,69.40
2023-03-24T15:15:47.027Z,70.60
2023-03-24T15:20:49.939Z,72.40
2023-03-24T15:25:54.478Z,74.90
2023-03-24T15:31:01.539Z,76.10
2023-03-24T15:36:03.870Z,79.00
2023-03-24T15:41:09.642Z,81.40
2023-03-24T15:46:54.279Z,84.40
2023-03-24T15:53:02.510Z,87.20
2023-03-24T15:58:32.387Z,88.70
2023-03-24T16:03:34.963Z,90.10
2023-03-24T16:08:40.812Z,90.70
2023-03-24T16:13:47.406Z,90.70
2023-03-24T16:18:50.039Z,90.70
2023-03-24T16:23:53.785Z,90.60
2023-03-24T16:29:26.328Z,90.70
2023-03-24T16:34:28.467Z,91.30
2023-03-24T16:39:33.349Z,92.00
2023-03-24T16:44:35.569Z,93.30
2023-03-24T16:49:37.915Z,95.20
2023-03-24T16:54:54.985Z,97.10
2023-03-24T16:59:56.802Z,99.60
2023-03-24T17:04:58.709Z,99.80
2023-03-24T17:10:00.509Z,99.90
2023-03-24T17:15:02.514Z,99.90
2023-03-24T17:20:05.416Z,99.90
2023-03-24T17:25:33.519Z,99.90
2023-03-24T17:30:35.548Z,99.90
2023-03-24T17:35:37.419Z,99.90
2023-03-24T17:40:41.729Z,99.90
2023-03-24T17:45:43.607Z,99.90
2023-03-24T17:50:48.227Z,99.90
2023-03-24T17:55:50.821Z,99.90
2023-03-24T18:00:53.675Z,99.90
2023-03-24T18:05:56.160Z,99.90
2023-03-24T18:11:16.008Z,99.90
2023-03-24T18:16:21.896Z,99.90
2023-03-24T18:21:24.251Z,99.90
2023-03-24T18:26:26.541Z,99.90
2023-03-24T18:31:31.529Z,99.90
2023-03-24T18:36:33.692Z,99.90
2023-03-24T18:41:39.183Z,99.90
2023-03-24T18:46:41.879Z,99.90
2023-03-24T18:51:45.198Z,99.90
2023-03-24T18:56:47.090Z,99.90
2023-03-24T19:01:50.504Z,99.90
2023-03-24T19:06:52.324Z,99.90
2023-03-24T19:11:54.337Z,99.90
2023-03-24T19:16:59.526Z,99.90
2023-03-24T19:22:01.930Z,99.90
2023-03-24T19:27:04.202Z,99.90
2023-03-24T19:32:06.183Z,99.90
2023-03-24T19:37:10.236Z,99.90
2023-03-24T19:42:12.031Z,99.90
2023-03-24T19:47:13.818Z,99.90
2023-03-24T19:52:16.133Z,99.90
2023-03-24T19:57:18.663Z,99.90
2023-03-24T20:02:21.364Z,99.90
2023-03-24T20:07:23.396Z,99.90
2023-03-24T20:12:26.895Z,99.90
2023-03-24T20:17:29.456Z,99.90
2023-03-24T20:22:31.782Z,99.90
2023-03-24T20:27:33.678Z,99.90
2023-03-24T20:32:35.788Z,99.90
2023-03-24T20:37:37.710Z,99.90
2023-03-24T20:42:39.869Z,99.90
2023-03-24T20:47:42.807Z,99.90
2023-03-24T20:52:44.846Z,99.90
2023-03-24T20:57:48.316Z,99.90
2023-03-24T21:02:50.479Z,99.90
2023-03-24T21:07:53.422Z,99.90
2023-03-24T21:12:55.391Z,99.90
2023-03-24T21:17:57.572Z,99.90
2023-03-24T21:23:04.335Z,99.90
2023-03-24T21:28:06.220Z,99.90
2023-03-24T21:33:09.248Z,99.90
2023-03-24T21:38:11.800Z,99.90
2023-03-24T21:43:14.807Z,99.90
2023-03-24T21:48:18.010Z,99.90
2023-03-24T21:53:20.951Z,99.90
2023-03-24T21:58:23.399Z,99.90
2023-03-24T22:03:25.927Z,99.90
2023-03-24T22:08:30.462Z,99.90
2023-03-24T22:13:33.568Z,99.90
2023-03-24T22:18:36.496Z,99.90
2023-03-24T22:23:40.114Z,99.90
2023-03-24T22:28:42.857Z,99.90
2023-03-24T22:33:44.794Z,99.90
2023-03-24T22:38:46.771Z,99.90
2023-03-24T22:43:49.208Z,99.90
2023-03-24T22:48:51.336Z,99.90
2023-03-24T22:53:53.116Z,99.90
2023-03-24T22:58:54.896Z,99.90
2023-03-24T23:03:56.678Z,99.90
2023-03-24T23:09:00.233Z,99.90
2023-03-24T23:14:05.231Z,99.90
2023-03-24T23:19:08.562Z,99.90
2023-03-24T23:24:10.924Z,99.90
2023-03-24T23:29:13.927Z,99.90
2023-03-24T23:34:18.200Z,99.90
2023-03-24T23:39:20.073Z,99.90
2023-03-24T23:44:21.872Z,99.90
2023-03-24T23:49:23.807Z,99.90
2023-03-24T23:54:25.673Z,99.90
2023-03-24T23:59:27.492Z,99.90
